TimeCST,TemperatureF,Dew PointF,Humidity,Sea Level PressureIn,VisibilityMPH,Wind Direction,Wind SpeedMPH,Gust SpeedMPH,PrecipitationIn,Events,Conditions,WindDirDegrees,DateUTC
12:53 AM,26.1,10.9,53,30.27,10.0,North,9.2,-,N/A,,Clear,10,2013-01-21 06:53:00
1:53 AM,25.0,12.0,58,30.28,10.0,North,9.2,-,N/A,,Clear,360,2013-01-21 07:53:00
2:53 AM,25.0,10.0,53,30.31,10.0,North,9.2,-,N/A,,Clear,360,2013-01-21 08:53:00
3:53 AM,23.0,10.0,58,30.31,10.0,North,8.1,-,N/A,,Clear,350,2013-01-21 09:53:00
4:53 AM,21.9,10.9,63,30.33,10.0,North,8.1,-,N/A,,Clear,350,2013-01-21 10:53:00
5:53 AM,21.0,10.0,63,30.35,10.0,North,9.2,-,N/A,,Clear,360,2013-01-21 11:53:00
6:53 AM,19.9,10.0,65,30.36,10.0,North,6.9,-,N/A,,Clear,360,2013-01-21 12:53:00
7:53 AM,19.9,10.0,65,30.37,10.0,North,6.9,-,N/A,,Clear,350,2013-01-21 13:53:00
8:53 AM,24.1,9.0,53,30.38,10.0,North,6.9,-,N/A,,Clear,360,2013-01-21 14:53:00
9:53 AM,28.0,10.0,47,30.39,10.0,North,5.8,-,N/A,,Clear,350,2013-01-21 15:53:00
10:53 AM,28.9,9.0,43,30.38,10.0,NW,10.4,-,N/A,,Clear,320,2013-01-21 16:53:00
11:53 AM,32.0,10.0,40,30.36,10.0,North,11.5,18.4,N/A,,Clear,350,2013-01-21 17:53:00
12:53 PM,35.1,12.0,39,30.33,10.0,NW,16.1,21.9,N/A,,Clear,310,2013-01-21 18:53:00
1:53 PM,36.0,12.9,39,30.32,10.0,WNW,12.7,-,N/A,,Clear,300,2013-01-21 19:53:00
2:53 PM,35.1,12.9,40,30.33,10.0,NW,13.8,21.9,N/A,,Clear,310,2013-01-21 20:53:00
3:53 PM,35.1,14.0,42,30.33,10.0,NNW,8.1,-,N/A,,Clear,330,2013-01-21 21:53:00
4:53 PM,32.0,12.9,45,30.33,10.0,NW,13.8,19.6,N/A,,Clear,320,2013-01-21 22:53:00
5:53 PM,28.9,12.9,51,30.34,10.0,NW,6.9,-,N/A,,Clear,320,2013-01-21 23:53:00
6:53 PM,26.1,12.0,55,30.34,10.0,North,4.6,-,N/A,,Partly Cloudy,360,2013-01-22 00:53:00
7:53 PM,24.1,10.9,57,30.35,10.0,NNW,5.8,-,N/A,,Partly Cloudy,340,2013-01-22 01:53:00
8:53 PM,23.0,9.0,55,30.36,10.0,NW,4.6,-,N/A,,Clear,320,2013-01-22 02:53:00
10:53 PM,19.9,9.0,62,30.37,10.0,NW,4.6,-,N/A,,Scattered Clouds,310,2013-01-22 04:53:00
11:53 PM,21.9,10.0,60,30.36,10.0,NNW,3.5,-,N/A,,Overcast,340,2013-01-22 05:53:00